sensor_id;sensor_type;location;lat;lon;timestamp;P1;durP1;ratioP1;P2;durP2;ratioP2
6374;SDS011;35400;45.472;-122.822;2023-12-07T00:01:28;1.17;;;0.90;;
6374;SDS011;35400;45.472;-122.822;2023-12-07T00:03:55;1.90;;;0.80;;
6374;SDS011;35400;45.472;-122.822;2023-12-07T00:06:22;0.80;;;0.80;;
6374;SDS011;35400;45.472;-122.822;2023-12-07T00:08:49;1.30;;;1.00;;
6374;SDS011;35400;45.472;-122.822;2023-12-07T00:11:15;1.00;;;0.90;;
6374;SDS011;35400;45.472;-122.822;2023-12-07T00:13:42;1.23;;;0.90;;
6374;SDS011;35400;45.472;-122.822;2023-12-07T00:16:09;1.90;;;1.20;;
6374;SDS011;35400;45.472;-122.822;2023-12-07T00:18:36;3.23;;;2.30;;
6374;SDS011;35400;45.472;-122.822;2023-12-07T00:21:04;3.40;;;2.10;;
6374;SDS011;35400;45.472;-122.822;2023-12-07T00:23:31;2.30;;;2.10;;
6374;SDS011;35400;45.472;-122.822;2023-12-07T00:25:57;2.77;;;2.57;;
6374;SDS011;35400;45.472;-122.822;2023-12-07T00:28:24;3.40;;;2.87;;
6374;SDS011;35400;45.472;-122.822;2023-12-07T00:30:52;3.23;;;2.53;;
6374;SDS011;35400;45.472;-122.822;2023-12-07T00:33:19;6.87;;;3.43;;
6374;SDS011;35400;45.472;-122.822;2023-12-07T00:35:47;3.47;;;3.17;;
6374;SDS011;35400;45.472;-122.822;2023-12-07T00:38:14;3.90;;;3.17;;
6374;SDS011;35400;45.472;-122.822;2023-12-07T00:40:43;5.90;;;3.83;;
6374;SDS011;35400;45.472;-122.822;2023-12-07T00:43:10;4.90;;;3.80;;
6374;SDS011;35400;45.472;-122.822;2023-12-07T00:45:38;3.40;;;3.10;;
6374;SDS011;35400;45.472;-122.822;2023-12-07T00:48:05;4.83;;;4.13;;
6374;SDS011;35400;45.472;-122.822;2023-12-07T00:50:55;3.83;;;3.43;;
6374;SDS011;35400;45.472;-122.822;2023-12-07T00:53:22;3.60;;;3.27;;
6374;SDS011;35400;45.472;-122.822;2023-12-07T00:55:49;3.33;;;3.03;;
6374;SDS011;35400;45.472;-122.822;2023-12-07T00:58:16;4.37;;;3.07;;
6374;SDS011;35400;45.472;-122.822;2023-12-07T01:00:43;3.57;;;2.87;;
6374;SDS011;35400;45.472;-122.822;2023-12-07T01:03:10;3.60;;;2.63;;
6374;SDS011;35400;45.472;-122.822;2023-12-07T01:05:37;2.87;;;1.83;;
6374;SDS011;35400;45.472;-122.822;2023-12-07T01:08:03;2.03;;;1.70;;
6374;SDS011;35400;45.472;-122.822;2023-12-07T01:10:30;1.67;;;1.50;;
6374;SDS011;35400;45.472;-122.822;2023-12-07T01:12:58;1.60;;;1.50;;
6374;SDS011;35400;45.472;-122.822;2023-12-07T01:15:24;1.53;;;1.33;;
6374;SDS011;35400;45.472;-122.822;2023-12-07T01:17:51;1.17;;;1.07;;
6374;SDS011;35400;45.472;-122.822;2023-12-07T01:20:18;0.80;;;0.70;;
6374;SDS011;35400;45.472;-122.822;2023-12-07T01:22:45;0.70;;;0.60;;
6374;SDS011;35400;45.472;-122.822;2023-12-07T01:25:12;0.87;;;0.77;;
6374;SDS011;35400;45.472;-122.822;2023-12-07T01:27:45;1.57;;;0.80;;
6374;SDS011;35400;45.472;-122.822;2023-12-07T01:30:12;0.60;;;0.60;;
6374;SDS011;35400;45.472;-122.822;2023-12-07T01:32:39;0.77;;;0.70;;
6374;SDS011;35400;45.472;-122.822;2023-12-07T01:35:06;1.33;;;0.80;;
6374;SDS011;35400;45.472;-122.822;2023-12-07T01:37:33;1.43;;;0.80;;
6374;SDS011;35400;45.472;-122.822;2023-12-07T01:40:01;0.80;;;0.80;;
6374;SDS011;35400;45.472;-122.822;2023-12-07T01:42:31;1.20;;;0.90;;
6374;SDS011;35400;45.472;-122.822;2023-12-07T01:44:58;0.87;;;0.87;;
6374;SDS011;35400;45.472;-122.822;2023-12-07T01:47:25;0.63;;;0.63;;
6374;SDS011;35400;45.472;-122.822;2023-12-07T01:49:52;0.60;;;0.60;;
6374;SDS011;35400;45.472;-122.822;2023-12-07T01:52:20;0.60;;;0.60;;
6374;SDS011;35400;45.472;-122.822;2023-12-07T01:54:48;0.57;;;0.50;;
6374;SDS011;35400;45.472;-122.822;2023-12-07T01:57:14;0.60;;;0.60;;
6374;SDS011;35400;45.472;-122.822;2023-12-07T01:59:41;2.57;;;0.70;;
6374;SDS011;35400;45.472;-122.822;2023-12-07T02:02:08;1.17;;;0.83;;
6374;SDS011;35400;45.472;-122.822;2023-12-07T02:04:35;1.53;;;0.77;;
6374;SDS011;35400;45.472;-122.822;2023-12-07T02:07:03;1.03;;;1.00;;
6374;SDS011;35400;45.472;-122.822;2023-12-07T02:09:32;1.20;;;1.10;;
6374;SDS011;35400;45.472;-122.822;2023-12-07T02:11:59;1.00;;;0.90;;
6374;SDS011;35400;45.472;-122.822;2023-12-07T02:14:26;2.00;;;1.67;;
6374;SDS011;35400;45.472;-122.822;2023-12-07T02:16:57;1.50;;;1.40;;
6374;SDS011;35400;45.472;-122.822;2023-12-07T02:22:37;2.00;;;1.73;;
6374;SDS011;35400;45.472;-122.822;2023-12-07T02:25:13;2.93;;;1.73;;
6374;SDS011;35400;45.472;-122.822;2023-12-07T02:27:41;2.30;;;2.10;;
6374;SDS011;35400;45.472;-122.822;2023-12-07T02:30:11;1.60;;;1.50;;
6374;SDS011;35400;45.472;-122.822;2023-12-07T02:32:39;1.70;;;1.60;;
6374;SDS011;35400;45.472;-122.822;2023-12-07T02:35:07;1.50;;;1.40;;
6374;SDS011;35400;45.472;-122.822;2023-12-07T02:37:36;3.10;;;1.80;;
6374;SDS011;35400;45.472;-122.822;2023-12-07T02:40:11;1.97;;;1.40;;
6374;SDS011;35400;45.472;-122.822;2023-12-07T02:42:40;1.30;;;1.20;;
6374;SDS011;35400;45.472;-122.822;2023-12-07T02:45:09;2.57;;;1.40;;
6374;SDS011;35400;45.472;-122.822;2023-12-07T02:47:36;1.20;;;1.10;;
6374;SDS011;35400;45.472;-122.822;2023-12-07T02:50:05;1.37;;;1.20;;
6374;SDS011;35400;45.472;-122.822;2023-12-07T02:52:33;1.93;;;1.20;;
6374;SDS011;35400;45.472;-122.822;2023-12-07T02:55:01;1.57;;;1.47;;
6374;SDS011;35400;45.472;-122.822;2023-12-07T02:57:28;1.37;;;1.27;;
6374;SDS011;35400;45.472;-122.822;2023-12-07T02:59:55;1.47;;;1.10;;
6374;SDS011;35400;45.472;-122.822;2023-12-07T03:02:22;2.03;;;1.50;;
6374;SDS011;35400;45.472;-122.822;2023-12-07T03:04:49;1.37;;;1.27;;
6374;SDS011;35400;45.472;-122.822;2023-12-07T03:07:16;1.83;;;1.20;;
6374;SDS011;35400;45.472;-122.822;2023-12-07T03:09:43;1.17;;;1.10;;
6374;SDS011;35400;45.472;-122.822;2023-12-07T03:12:10;1.30;;;1.30;;
6374;SDS011;35400;45.472;-122.822;2023-12-07T03:14:37;1.40;;;1.30;;
6374;SDS011;35400;45.472;-122.822;2023-12-07T03:17:04;1.60;;;1.50;;
6374;SDS011;35400;45.472;-122.822;2023-12-07T03:19:31;1.77;;;1.27;;
6374;SDS011;35400;45.472;-122.822;2023-12-07T03:21:58;1.40;;;1.30;;
6374;SDS011;35400;45.472;-122.822;2023-12-07T03:24:25;1.70;;;1.40;;
6374;SDS011;35400;45.472;-122.822;2023-12-07T03:26:51;2.17;;;1.20;;
6374;SDS011;35400;45.472;-122.822;2023-12-07T03:29:18;1.50;;;1.30;;
6374;SDS011;35400;45.472;-122.822;2023-12-07T03:31:45;1.53;;;1.43;;
6374;SDS011;35400;45.472;-122.822;2023-12-07T03:34:12;1.70;;;1.60;;
6374;SDS011;35400;45.472;-122.822;2023-12-07T03:36:50;2.87;;;1.53;;
6374;SDS011;35400;45.472;-122.822;2023-12-07T03:39:17;1.77;;;1.33;;
6374;SDS011;35400;45.472;-122.822;2023-12-07T03:41:44;2.10;;;1.40;;
6374;SDS011;35400;45.472;-122.822;2023-12-07T03:44:11;1.53;;;1.30;;
6374;SDS011;35400;45.472;-122.822;2023-12-07T03:46:38;2.10;;;1.20;;
6374;SDS011;35400;45.472;-122.822;2023-12-07T03:49:05;1.10;;;1.10;;
6374;SDS011;35400;45.472;-122.822;2023-12-07T03:51:32;2.53;;;1.33;;
6374;SDS011;35400;45.472;-122.822;2023-12-07T03:54:02;1.70;;;1.57;;
6374;SDS011;35400;45.472;-122.822;2023-12-07T03:56:30;2.07;;;1.60;;
6374;SDS011;35400;45.472;-122.822;2023-12-07T03:58:57;1.60;;;1.50;;
6374;SDS011;35400;45.472;-122.822;2023-12-07T04:01:25;1.93;;;1.60;;
6374;SDS011;35400;45.472;-122.822;2023-12-07T04:03:56;3.53;;;1.67;;
6374;SDS011;35400;45.472;-122.822;2023-12-07T04:06:24;2.57;;;1.80;;
6374;SDS011;35400;45.472;-122.822;2023-12-07T04:08:51;2.87;;;2.53;;
6374;SDS011;35400;45.472;-122.822;2023-12-07T04:11:18;3.37;;;2.70;;
6374;SDS011;35400;45.472;-122.822;2023-12-07T04:13:46;2.77;;;2.57;;
6374;SDS011;35400;45.472;-122.822;2023-12-07T04:16:13;2.67;;;2.47;;
6374;SDS011;35400;45.472;-122.822;2023-12-07T04:18:40;2.73;;;2.53;;
6374;SDS011;35400;45.472;-122.822;2023-12-07T04:21:07;3.40;;;3.10;;
6374;SDS011;35400;45.472;-122.822;2023-12-07T04:23:34;3.43;;;2.70;;
6374;SDS011;35400;45.472;-122.822;2023-12-07T04:26:00;3.43;;;2.90;;
6374;SDS011;35400;45.472;-122.822;2023-12-07T04:28:27;2.93;;;2.73;;
6374;SDS011;35400;45.472;-122.822;2023-12-07T04:30:54;3.33;;;3.03;;
6374;SDS011;35400;45.472;-122.822;2023-12-07T04:33:21;3.40;;;3.00;;
6374;SDS011;35400;45.472;-122.822;2023-12-07T04:35:48;4.27;;;3.13;;
6374;SDS011;35400;45.472;-122.822;2023-12-07T04:38:15;2.57;;;2.37;;
6374;SDS011;35400;45.472;-122.822;2023-12-07T04:40:42;3.70;;;2.70;;
6374;SDS011;35400;45.472;-122.822;2023-12-07T04:43:09;3.00;;;2.07;;
6374;SDS011;35400;45.472;-122.822;2023-12-07T04:45:36;3.60;;;2.60;;
6374;SDS011;35400;45.472;-122.822;2023-12-07T04:48:03;3.63;;;2.67;;
6374;SDS011;35400;45.472;-122.822;2023-12-07T04:50:30;2.80;;;2.60;;
6374;SDS011;35400;45.472;-122.822;2023-12-07T04:52:57;3.13;;;2.80;;
6374;SDS011;35400;45.472;-122.822;2023-12-07T04:55:23;3.17;;;2.87;;
6374;SDS011;35400;45.472;-122.822;2023-12-07T04:57:50;2.93;;;2.73;;
6374;SDS011;35400;45.472;-122.822;2023-12-07T05:00:18;3.60;;;2.90;;
6374;SDS011;35400;45.472;-122.822;2023-12-07T05:02:45;2.70;;;2.50;;
6374;SDS011;35400;45.472;-122.822;2023-12-07T05:05:13;2.90;;;2.70;;
6374;SDS011;35400;45.472;-122.822;2023-12-07T05:07:41;3.67;;;2.73;;
6374;SDS011;35400;45.472;-122.822;2023-12-07T05:10:07;3.00;;;2.80;;
6374;SDS011;35400;45.472;-122.822;2023-12-07T05:12:35;2.70;;;2.50;;
6374;SDS011;35400;45.472;-122.822;2023-12-07T05:15:02;2.50;;;2.30;;
6374;SDS011;35400;45.472;-122.822;2023-12-07T05:17:31;2.53;;;2.33;;
6374;SDS011;35400;45.472;-122.822;2023-12-07T05:19:58;2.50;;;2.30;;
6374;SDS011;35400;45.472;-122.822;2023-12-07T05:22:25;2.67;;;2.47;;
6374;SDS011;35400;45.472;-122.822;2023-12-07T05:24:52;2.70;;;2.30;;
6374;SDS011;35400;45.472;-122.822;2023-12-07T05:27:19;3.13;;;2.10;;
6374;SDS011;35400;45.472;-122.822;2023-12-07T05:29:45;2.50;;;2.30;;
6374;SDS011;35400;45.472;-122.822;2023-12-07T05:32:12;4.10;;;2.23;;
6374;SDS011;35400;45.472;-122.822;2023-12-07T05:34:39;2.47;;;2.30;;
6374;SDS011;35400;45.472;-122.822;2023-12-07T05:37:07;2.03;;;1.90;;
6374;SDS011;35400;45.472;-122.822;2023-12-07T05:39:33;2.43;;;2.23;;
6374;SDS011;35400;45.472;-122.822;2023-12-07T05:42:00;1.77;;;1.67;;
6374;SDS011;35400;45.472;-122.822;2023-12-07T05:44:27;2.20;;;1.97;;
6374;SDS011;35400;45.472;-122.822;2023-12-07T05:46:54;2.43;;;2.13;;
6374;SDS011;35400;45.472;-122.822;2023-12-07T05:49:23;2.03;;;1.93;;
6374;SDS011;35400;45.472;-122.822;2023-12-07T05:51:50;2.50;;;2.30;;
6374;SDS011;35400;45.472;-122.822;2023-12-07T05:54:18;2.47;;;2.10;;
6374;SDS011;35400;45.472;-122.822;2023-12-07T05:56:48;2.53;;;2.33;;
6374;SDS011;35400;45.472;-122.822;2023-12-07T05:59:15;3.30;;;2.80;;
6374;SDS011;35400;45.472;-122.822;2023-12-07T06:01:42;2.70;;;2.40;;
6374;SDS011;35400;45.472;-122.822;2023-12-07T06:04:09;2.80;;;2.60;;
6374;SDS011;35400;45.472;-122.822;2023-12-07T06:06:38;3.83;;;3.07;;
6374;SDS011;35400;45.472;-122.822;2023-12-07T06:09:05;3.13;;;2.83;;
6374;SDS011;35400;45.472;-122.822;2023-12-07T06:11:32;2.97;;;2.77;;
6374;SDS011;35400;45.472;-122.822;2023-12-07T06:14:00;3.47;;;3.00;;
6374;SDS011;35400;45.472;-122.822;2023-12-07T06:16:28;3.20;;;2.90;;
6374;SDS011;35400;45.472;-122.822;2023-12-07T06:18:55;3.50;;;3.20;;
6374;SDS011;35400;45.472;-122.822;2023-12-07T06:21:22;3.50;;;3.03;;
6374;SDS011;35400;45.472;-122.822;2023-12-07T06:23:48;4.47;;;3.10;;
6374;SDS011;35400;45.472;-122.822;2023-12-07T06:26:16;3.37;;;2.73;;
6374;SDS011;35400;45.472;-122.822;2023-12-07T06:28:43;3.87;;;2.80;;
6374;SDS011;35400;45.472;-122.822;2023-12-07T06:31:09;2.77;;;2.50;;
6374;SDS011;35400;45.472;-122.822;2023-12-07T06:33:37;2.83;;;2.53;;
6374;SDS011;35400;45.472;-122.822;2023-12-07T06:36:04;2.87;;;2.50;;
6374;SDS011;35400;45.472;-122.822;2023-12-07T06:38:32;3.30;;;2.30;;
6374;SDS011;35400;45.472;-122.822;2023-12-07T06:40:58;2.83;;;2.63;;
6374;SDS011;35400;45.472;-122.822;2023-12-07T06:43:25;3.50;;;2.47;;
6374;SDS011;35400;45.472;-122.822;2023-12-07T06:45:52;2.10;;;1.93;;
6374;SDS011;35400;45.472;-122.822;2023-12-07T06:48:20;2.73;;;2.47;;
6374;SDS011;35400;45.472;-122.822;2023-12-07T06:50:47;2.60;;;1.80;;
6374;SDS011;35400;45.472;-122.822;2023-12-07T06:53:14;2.63;;;1.60;;
6374;SDS011;35400;45.472;-122.822;2023-12-07T06:55:41;3.07;;;1.67;;
6374;SDS011;35400;45.472;-122.822;2023-12-07T06:58:08;2.07;;;1.30;;
6374;SDS011;35400;45.472;-122.822;2023-12-07T07:00:35;1.40;;;1.30;;
6374;SDS011;35400;45.472;-122.822;2023-12-07T07:03:02;1.00;;;1.00;;
6374;SDS011;35400;45.472;-122.822;2023-12-07T07:05:29;0.90;;;0.90;;
6374;SDS011;35400;45.472;-122.822;2023-12-07T07:07:56;0.80;;;0.80;;
6374;SDS011;35400;45.472;-122.822;2023-12-07T07:10:23;0.97;;;0.87;;
6374;SDS011;35400;45.472;-122.822;2023-12-07T07:12:50;0.70;;;0.70;;
6374;SDS011;35400;45.472;-122.822;2023-12-07T07:15:17;0.87;;;0.87;;
6374;SDS011;35400;45.472;-122.822;2023-12-07T07:17:45;0.87;;;0.80;;
6374;SDS011;35400;45.472;-122.822;2023-12-07T07:20:12;0.90;;;0.60;;
6374;SDS011;35400;45.472;-122.822;2023-12-07T07:22:39;0.70;;;0.70;;
6374;SDS011;35400;45.472;-122.822;2023-12-07T07:25:06;2.20;;;0.60;;
6374;SDS011;35400;45.472;-122.822;2023-12-07T07:27:33;0.40;;;0.40;;
6374;SDS011;35400;45.472;-122.822;2023-12-07T07:30:00;0.40;;;0.40;;
6374;SDS011;35400;45.472;-122.822;2023-12-07T07:32:29;1.03;;;0.53;;
6374;SDS011;35400;45.472;-122.822;2023-12-07T07:34:56;1.30;;;0.60;;
6374;SDS011;35400;45.472;-122.822;2023-12-07T07:37:23;0.83;;;0.50;;
6374;SDS011;35400;45.472;-122.822;2023-12-07T07:39:50;0.50;;;0.50;;
6374;SDS011;35400;45.472;-122.822;2023-12-07T07:42:17;0.60;;;0.53;;
6374;SDS011;35400;45.472;-122.822;2023-12-07T07:44:44;1.03;;;0.53;;
6374;SDS011;35400;45.472;-122.822;2023-12-07T07:47:11;2.03;;;0.67;;
6374;SDS011;35400;45.472;-122.822;2023-12-07T07:49:38;1.53;;;0.63;;
6374;SDS011;35400;45.472;-122.822;2023-12-07T07:52:05;0.70;;;0.60;;
6374;SDS011;35400;45.472;-122.822;2023-12-07T07:54:32;2.30;;;0.60;;
6374;SDS011;35400;45.472;-122.822;2023-12-07T07:56:58;0.50;;;0.50;;
6374;SDS011;35400;45.472;-122.822;2023-12-07T07:59:25;1.07;;;0.60;;
6374;SDS011;35400;45.472;-122.822;2023-12-07T08:01:52;1.20;;;0.70;;
6374;SDS011;35400;45.472;-122.822;2023-12-07T08:04:19;0.83;;;0.73;;
6374;SDS011;35400;45.472;-122.822;2023-12-07T08:06:46;0.63;;;0.63;;
6374;SDS011;35400;45.472;-122.822;2023-12-07T08:09:13;1.63;;;0.60;;
6374;SDS011;35400;45.472;-122.822;2023-12-07T08:11:40;1.97;;;0.70;;
6374;SDS011;35400;45.472;-122.822;2023-12-07T08:14:07;1.10;;;1.00;;
6374;SDS011;35400;45.472;-122.822;2023-12-07T08:16:34;0.70;;;0.70;;
6374;SDS011;35400;45.472;-122.822;2023-12-07T08:19:01;0.80;;;0.80;;
6374;SDS011;35400;45.472;-122.822;2023-12-07T08:21:28;0.80;;;0.80;;
6374;SDS011;35400;45.472;-122.822;2023-12-07T08:23:55;0.93;;;0.93;;
6374;SDS011;35400;45.472;-122.822;2023-12-07T08:26:22;1.63;;;0.60;;
6374;SDS011;35400;45.472;-122.822;2023-12-07T08:28:49;0.70;;;0.70;;
6374;SDS011;35400;45.472;-122.822;2023-12-07T08:31:19;2.13;;;0.70;;
6374;SDS011;35400;45.472;-122.822;2023-12-07T08:33:48;1.27;;;0.70;;
6374;SDS011;35400;45.472;-122.822;2023-12-07T08:36:18;0.50;;;0.50;;
6374;SDS011;35400;45.472;-122.822;2023-12-07T08:38:45;2.70;;;0.70;;
6374;SDS011;35400;45.472;-122.822;2023-12-07T08:41:12;0.90;;;0.67;;
6374;SDS011;35400;45.472;-122.822;2023-12-07T08:43:39;0.77;;;0.53;;
6374;SDS011;35400;45.472;-122.822;2023-12-07T08:46:05;0.70;;;0.70;;
6374;SDS011;35400;45.472;-122.822;2023-12-07T08:48:33;1.03;;;0.60;;
6374;SDS011;35400;45.472;-122.822;2023-12-07T08:51:00;1.00;;;0.50;;
6374;SDS011;35400;45.472;-122.822;2023-12-07T08:53:27;0.53;;;0.40;;
6374;SDS011;35400;45.472;-122.822;2023-12-07T08:55:54;1.03;;;0.50;;
6374;SDS011;35400;45.472;-122.822;2023-12-07T08:58:21;0.70;;;0.47;;
6374;SDS011;35400;45.472;-122.822;2023-12-07T09:00:48;0.50;;;0.50;;
6374;SDS011;35400;45.472;-122.822;2023-12-07T09:03:16;0.40;;;0.40;;
6374;SDS011;35400;45.472;-122.822;2023-12-07T09:05:43;1.40;;;0.50;;
6374;SDS011;35400;45.472;-122.822;2023-12-07T09:08:10;0.37;;;0.37;;
6374;SDS011;35400;45.472;-122.822;2023-12-07T09:10:37;0.40;;;0.40;;
6374;SDS011;35400;45.472;-122.822;2023-12-07T09:13:04;0.33;;;0.33;;
6374;SDS011;35400;45.472;-122.822;2023-12-07T09:15:31;0.40;;;0.40;;
6374;SDS011;35400;45.472;-122.822;2023-12-07T09:17:58;2.00;;;0.50;;
6374;SDS011;35400;45.472;-122.822;2023-12-07T09:20:25;0.47;;;0.40;;
6374;SDS011;35400;45.472;-122.822;2023-12-07T09:22:52;1.00;;;0.30;;
6374;SDS011;35400;45.472;-122.822;2023-12-07T09:25:20;0.57;;;0.47;;
6374;SDS011;35400;45.472;-122.822;2023-12-07T09:27:47;0.20;;;0.20;;
6374;SDS011;35400;45.472;-122.822;2023-12-07T09:30:14;0.57;;;0.40;;
6374;SDS011;35400;45.472;-122.822;2023-12-07T09:32:42;0.50;;;0.50;;
6374;SDS011;35400;45.472;-122.822;2023-12-07T09:35:09;0.60;;;0.60;;
6374;SDS011;35400;45.472;-122.822;2023-12-07T09:37:45;0.90;;;0.60;;
6374;SDS011;35400;45.472;-122.822;2023-12-07T09:40:16;0.50;;;0.50;;
6374;SDS011;35400;45.472;-122.822;2023-12-07T09:42:43;1.03;;;0.70;;
6374;SDS011;35400;45.472;-122.822;2023-12-07T09:45:11;0.53;;;0.50;;
6374;SDS011;35400;45.472;-122.822;2023-12-07T09:47:39;1.20;;;0.60;;
6374;SDS011;35400;45.472;-122.822;2023-12-07T09:50:08;1.63;;;0.40;;
6374;SDS011;35400;45.472;-122.822;2023-12-07T09:52:35;1.23;;;0.40;;
6374;SDS011;35400;45.472;-122.822;2023-12-07T09:55:02;1.30;;;0.50;;
6374;SDS011;35400;45.472;-122.822;2023-12-07T09:57:30;1.30;;;0.40;;
6374;SDS011;35400;45.472;-122.822;2023-12-07T09:59:58;1.20;;;0.50;;
6374;SDS011;35400;45.472;-122.822;2023-12-07T10:02:25;0.50;;;0.50;;
6374;SDS011;35400;45.472;-122.822;2023-12-07T10:05:04;0.47;;;0.47;;
6374;SDS011;35400;45.472;-122.822;2023-12-07T10:07:33;1.17;;;0.50;;
6374;SDS011;35400;45.472;-122.822;2023-12-07T10:10:24;0.73;;;0.60;;
6374;SDS011;35400;45.472;-122.822;2023-12-07T10:12:52;2.40;;;0.67;;
6374;SDS011;35400;45.472;-122.822;2023-12-07T10:15:21;1.00;;;0.50;;
6374;SDS011;35400;45.472;-122.822;2023-12-07T10:17:53;1.13;;;0.30;;
6374;SDS011;35400;45.472;-122.822;2023-12-07T10:20:24;2.10;;;0.60;;
6374;SDS011;35400;45.472;-122.822;2023-12-07T10:23:02;1.10;;;0.40;;
6374;SDS011;35400;45.472;-122.822;2023-12-07T10:25:31;1.73;;;0.40;;
6374;SDS011;35400;45.472;-122.822;2023-12-07T10:27:58;2.03;;;0.50;;
6374;SDS011;35400;45.472;-122.822;2023-12-07T10:30:26;1.80;;;0.50;;
6374;SDS011;35400;45.472;-122.822;2023-12-07T10:32:53;1.30;;;0.60;;
6374;SDS011;35400;45.472;-122.822;2023-12-07T10:35:20;0.83;;;0.40;;
6374;SDS011;35400;45.472;-122.822;2023-12-07T10:37:47;0.40;;;0.40;;
6374;SDS011;35400;45.472;-122.822;2023-12-07T10:40:14;2.60;;;1.20;;
6374;SDS011;35400;45.472;-122.822;2023-12-07T10:42:41;0.60;;;0.60;;
6374;SDS011;35400;45.472;-122.822;2023-12-07T10:45:13;0.40;;;0.40;;
6374;SDS011;35400;45.472;-122.822;2023-12-07T10:47:42;0.63;;;0.63;;
6374;SDS011;35400;45.472;-122.822;2023-12-07T10:50:10;2.33;;;0.47;;
6374;SDS011;35400;45.472;-122.822;2023-12-07T10:52:41;0.53;;;0.40;;
6374;SDS011;35400;45.472;-122.822;2023-12-07T10:55:19;0.43;;;0.43;;
6374;SDS011;35400;45.472;-122.822;2023-12-07T10:57:49;1.13;;;0.50;;
6374;SDS011;35400;45.472;-122.822;2023-12-07T11:00:22;0.40;;;0.40;;
6374;SDS011;35400;45.472;-122.822;2023-12-07T11:02:55;1.97;;;0.53;;
6374;SDS011;35400;45.472;-122.822;2023-12-07T11:05:24;1.40;;;0.60;;
6374;SDS011;35400;45.472;-122.822;2023-12-07T11:07:55;2.27;;;0.50;;
6374;SDS011;35400;45.472;-122.822;2023-12-07T11:10:33;1.70;;;0.57;;
6374;SDS011;35400;45.472;-122.822;2023-12-07T11:13:13;0.50;;;0.50;;
6374;SDS011;35400;45.472;-122.822;2023-12-07T11:15:49;1.13;;;0.57;;
6374;SDS011;35400;45.472;-122.822;2023-12-07T11:18:16;2.27;;;0.73;;
6374;SDS011;35400;45.472;-122.822;2023-12-07T11:20:44;1.73;;;0.43;;
6374;SDS011;35400;45.472;-122.822;2023-12-07T11:23:16;3.17;;;0.70;;
6374;SDS011;35400;45.472;-122.822;2023-12-07T11:25:47;2.17;;;0.60;;
6374;SDS011;35400;45.472;-122.822;2023-12-07T11:28:16;1.10;;;0.90;;
6374;SDS011;35400;45.472;-122.822;2023-12-07T11:30:46;1.17;;;0.50;;
6374;SDS011;35400;45.472;-122.822;2023-12-07T11:33:19;2.40;;;0.60;;
6374;SDS011;35400;45.472;-122.822;2023-12-07T11:36:07;1.87;;;0.50;;
6374;SDS011;35400;45.472;-122.822;2023-12-07T11:38:35;1.27;;;0.40;;
6374;SDS011;35400;45.472;-122.822;2023-12-07T11:41:03;1.10;;;0.60;;
6374;SDS011;35400;45.472;-122.822;2023-12-07T11:46:06;1.43;;;0.80;;
6374;SDS011;35400;45.472;-122.822;2023-12-07T11:48:34;3.70;;;0.80;;
6374;SDS011;35400;45.472;-122.822;2023-12-07T11:51:05;1.90;;;0.43;;
6374;SDS011;35400;45.472;-122.822;2023-12-07T11:53:34;3.70;;;0.70;;
6374;SDS011;35400;45.472;-122.822;2023-12-07T11:56:02;0.83;;;0.50;;
6374;SDS011;35400;45.472;-122.822;2023-12-07T11:58:34;3.03;;;0.60;;
6374;SDS011;35400;45.472;-122.822;2023-12-07T12:01:02;0.83;;;0.50;;
6374;SDS011;35400;45.472;-122.822;2023-12-07T12:03:30;0.77;;;0.70;;
6374;SDS011;35400;45.472;-122.822;2023-12-07T12:06:03;1.27;;;0.50;;
6374;SDS011;35400;45.472;-122.822;2023-12-07T12:08:33;0.63;;;0.40;;
6374;SDS011;35400;45.472;-122.822;2023-12-07T12:11:00;0.50;;;0.43;;
6374;SDS011;35400;45.472;-122.822;2023-12-07T12:13:28;1.23;;;0.50;;
6374;SDS011;35400;45.472;-122.822;2023-12-07T12:15:56;2.03;;;0.70;;
6374;SDS011;35400;45.472;-122.822;2023-12-07T12:18:24;2.00;;;0.50;;
6374;SDS011;35400;45.472;-122.822;2023-12-07T12:20:52;0.87;;;0.73;;
6374;SDS011;35400;45.472;-122.822;2023-12-07T12:23:19;4.47;;;0.70;;
6374;SDS011;35400;45.472;-122.822;2023-12-07T12:25:46;0.40;;;0.40;;
6374;SDS011;35400;45.472;-122.822;2023-12-07T12:28:15;1.33;;;0.60;;
6374;SDS011;35400;45.472;-122.822;2023-12-07T12:30:47;2.43;;;0.60;;
6374;SDS011;35400;45.472;-122.822;2023-12-07T12:33:15;2.33;;;0.47;;
6374;SDS011;35400;45.472;-122.822;2023-12-07T12:35:43;3.37;;;0.50;;
6374;SDS011;35400;45.472;-122.822;2023-12-07T12:38:10;0.73;;;0.37;;
6374;SDS011;35400;45.472;-122.822;2023-12-07T12:40:38;1.57;;;0.60;;
6374;SDS011;35400;45.472;-122.822;2023-12-07T12:43:07;2.30;;;0.60;;
6374;SDS011;35400;45.472;-122.822;2023-12-07T12:45:34;1.60;;;0.50;;
6374;SDS011;35400;45.472;-122.822;2023-12-07T12:48:01;0.50;;;0.40;;
6374;SDS011;35400;45.472;-122.822;2023-12-07T12:50:32;2.17;;;0.47;;
6374;SDS011;35400;45.472;-122.822;2023-12-07T12:53:05;1.47;;;0.70;;
6374;SDS011;35400;45.472;-122.822;2023-12-07T12:55:36;1.13;;;0.40;;
6374;SDS011;35400;45.472;-122.822;2023-12-07T12:58:09;2.27;;;0.50;;
6374;SDS011;35400;45.472;-122.822;2023-12-07T13:00:39;1.17;;;0.60;;
6374;SDS011;35400;45.472;-122.822;2023-12-07T13:03:10;0.60;;;0.50;;
6374;SDS011;35400;45.472;-122.822;2023-12-07T13:05:38;2.93;;;0.70;;
6374;SDS011;35400;45.472;-122.822;2023-12-07T13:08:06;1.37;;;0.60;;
6374;SDS011;35400;45.472;-122.822;2023-12-07T13:10:33;1.50;;;0.63;;
6374;SDS011;35400;45.472;-122.822;2023-12-07T13:13:00;2.57;;;0.80;;
6374;SDS011;35400;45.472;-122.822;2023-12-07T13:15:29;1.73;;;0.70;;
6374;SDS011;35400;45.472;-122.822;2023-12-07T13:17:55;1.23;;;0.60;;
6374;SDS011;35400;45.472;-122.822;2023-12-07T13:20:22;1.07;;;0.67;;
6374;SDS011;35400;45.472;-122.822;2023-12-07T13:22:49;1.20;;;0.50;;
6374;SDS011;35400;45.472;-122.822;2023-12-07T13:25:16;1.53;;;0.60;;
6374;SDS011;35400;45.472;-122.822;2023-12-07T13:27:43;1.70;;;0.50;;
6374;SDS011;35400;45.472;-122.822;2023-12-07T13:30:10;2.37;;;0.50;;
6374;SDS011;35400;45.472;-122.822;2023-12-07T13:32:38;0.73;;;0.50;;
6374;SDS011;35400;45.472;-122.822;2023-12-07T13:35:05;1.17;;;0.57;;
6374;SDS011;35400;45.472;-122.822;2023-12-07T13:37:33;1.37;;;0.50;;
6374;SDS011;35400;45.472;-122.822;2023-12-07T13:40:00;1.90;;;0.60;;
6374;SDS011;35400;45.472;-122.822;2023-12-07T13:42:29;2.33;;;0.60;;
6374;SDS011;35400;45.472;-122.822;2023-12-07T13:44:57;1.17;;;0.40;;
6374;SDS011;35400;45.472;-122.822;2023-12-07T13:47:26;1.40;;;0.40;;
6374;SDS011;35400;45.472;-122.822;2023-12-07T13:50:02;1.77;;;0.60;;
6374;SDS011;35400;45.472;-122.822;2023-12-07T13:52:30;0.93;;;0.57;;
6374;SDS011;35400;45.472;-122.822;2023-12-07T13:54:57;2.63;;;0.83;;
6374;SDS011;35400;45.472;-122.822;2023-12-07T13:57:25;3.90;;;0.60;;
6374;SDS011;35400;45.472;-122.822;2023-12-07T13:59:52;2.47;;;0.60;;
6374;SDS011;35400;45.472;-122.822;2023-12-07T14:02:20;1.77;;;0.67;;
6374;SDS011;35400;45.472;-122.822;2023-12-07T14:04:47;0.70;;;0.53;;
6374;SDS011;35400;45.472;-122.822;2023-12-07T14:07:19;1.27;;;0.70;;
6374;SDS011;35400;45.472;-122.822;2023-12-07T14:09:47;1.37;;;0.50;;
6374;SDS011;35400;45.472;-122.822;2023-12-07T14:12:16;3.60;;;0.70;;
6374;SDS011;35400;45.472;-122.822;2023-12-07T14:14:44;1.23;;;0.50;;
6374;SDS011;35400;45.472;-122.822;2023-12-07T14:17:12;2.27;;;0.50;;
6374;SDS011;35400;45.472;-122.822;2023-12-07T14:19:40;1.30;;;0.70;;
6374;SDS011;35400;45.472;-122.822;2023-12-07T14:22:08;1.23;;;0.70;;
6374;SDS011;35400;45.472;-122.822;2023-12-07T14:24:35;0.80;;;0.50;;
6374;SDS011;35400;45.472;-122.822;2023-12-07T14:27:02;1.97;;;0.70;;
6374;SDS011;35400;45.472;-122.822;2023-12-07T14:29:30;1.37;;;0.67;;
6374;SDS011;35400;45.472;-122.822;2023-12-07T14:31:58;1.50;;;0.60;;